Terminal Aerodrome Forecast
Issued by NWS

Home | Current Version | Previous Version | Text Only | Print | Product List | Glossary On
Versions: 1 2 3 4 5 6 7 8 9 10 11 12 13 14 15 16 17 18
686
FTUS41 KGYX 032320
TAFAUG
TAF
KAUG 032320Z 0400/0424 06004KT P6SM OVC035
     FM040600 08007KT P6SM OVC015
     FM041900 08008KT P6SM OVC015 PROB30 0421/0424 4SM -RA OVC007=

USA.gov is the U.S. government's official web portal to all federal, state and local government web resources and services.